sensor_id;sensor_type;location;lat;lon;timestamp;pressure;altitude;pressure_sealevel;temperature;humidity
23589;BME280;11972;48.078;11.876;2022-11-14T00:03:08;95445.69;;;-0.46;100.00
23589;BME280;11972;48.078;11.876;2022-11-14T00:07:09;95430.47;;;-0.51;100.00
23589;BME280;11972;48.078;11.876;2022-11-14T00:11:09;95430.09;;;-0.58;100.00
23589;BME280;11972;48.078;11.876;2022-11-14T00:15:10;95435.28;;;-0.58;100.00
23589;BME280;11972;48.078;11.876;2022-11-14T00:19:12;95438.22;;;-0.62;100.00
23589;BME280;11972;48.078;11.876;2022-11-14T00:23:12;95452.50;;;-0.68;100.00
23589;BME280;11972;48.078;11.876;2022-11-14T00:27:12;95456.13;;;-0.70;100.00
23589;BME280;11972;48.078;11.876;2022-11-14T00:31:13;95456.47;;;-0.75;100.00
23589;BME280;11972;48.078;11.876;2022-11-14T00:35:13;95451.41;;;-0.77;100.00
23589;BME280;11972;48.078;11.876;2022-11-14T00:39:14;95449.53;;;-0.75;100.00
23589;BME280;11972;48.078;11.876;2022-11-14T00:43:15;95450.59;;;-0.77;100.00
23589;BME280;11972;48.078;11.876;2022-11-14T00:47:16;95431.03;;;-0.81;100.00
23589;BME280;11972;48.078;11.876;2022-11-14T00:51:16;95439.25;;;-0.87;100.00
23589;BME280;11972;48.078;11.876;2022-11-14T00:55:16;95446.53;;;-0.92;100.00
23589;BME280;11972;48.078;11.876;2022-11-14T00:59:17;95440.16;;;-1.00;100.00
23589;BME280;11972;48.078;11.876;2022-11-14T01:03:18;95445.81;;;-1.06;100.00
23589;BME280;11972;48.078;11.876;2022-11-14T01:07:18;95449.34;;;-1.07;100.00
23589;BME280;11972;48.078;11.876;2022-11-14T01:11:20;95440.41;;;-1.03;100.00
23589;BME280;11972;48.078;11.876;2022-11-14T01:15:20;95426.00;;;-1.07;100.00
23589;BME280;11972;48.078;11.876;2022-11-14T01:19:21;95420.31;;;-1.12;100.00
23589;BME280;11972;48.078;11.876;2022-11-14T01:23:21;95427.63;;;-1.17;100.00
23589;BME280;11972;48.078;11.876;2022-11-14T01:27:21;95419.16;;;-1.19;100.00
23589;BME280;11972;48.078;11.876;2022-11-14T01:31:23;95413.84;;;-1.17;100.00
23589;BME280;11972;48.078;11.876;2022-11-14T01:35:24;95411.47;;;-1.20;100.00
23589;BME280;11972;48.078;11.876;2022-11-14T01:39:25;95404.41;;;-1.18;100.00
23589;BME280;11972;48.078;11.876;2022-11-14T01:43:29;95403.13;;;-1.13;100.00
23589;BME280;11972;48.078;11.876;2022-11-14T01:47:31;95387.53;;;-1.24;100.00
23589;BME280;11972;48.078;11.876;2022-11-14T01:51:42;95417.25;;;-1.17;100.00
23589;BME280;11972;48.078;11.876;2022-11-14T01:55:44;95437.81;;;-1.03;100.00
23589;BME280;11972;48.078;11.876;2022-11-14T01:59:49;95434.31;;;-0.90;100.00
23589;BME280;11972;48.078;11.876;2022-11-14T02:03:52;95427.72;;;-0.72;100.00
23589;BME280;11972;48.078;11.876;2022-11-14T02:07:53;95418.78;;;-0.57;100.00
23589;BME280;11972;48.078;11.876;2022-11-14T02:11:55;95411.25;;;-0.48;100.00
23589;BME280;11972;48.078;11.876;2022-11-14T02:15:57;95399.91;;;-0.47;100.00
23589;BME280;11972;48.078;11.876;2022-11-14T02:24:11;95380.47;;;-0.64;100.00
23589;BME280;11972;48.078;11.876;2022-11-14T02:28:13;95386.22;;;-0.72;100.00
23589;BME280;11972;48.078;11.876;2022-11-14T02:32:13;95383.88;;;-0.75;100.00
23589;BME280;11972;48.078;11.876;2022-11-14T02:36:13;95391.63;;;-0.75;100.00
23589;BME280;11972;48.078;11.876;2022-11-14T02:40:14;95375.59;;;-0.80;100.00
23589;BME280;11972;48.078;11.876;2022-11-14T02:44:14;95366.63;;;-0.87;100.00
23589;BME280;11972;48.078;11.876;2022-11-14T02:48:15;95365.22;;;-0.91;100.00
23589;BME280;11972;48.078;11.876;2022-11-14T02:52:15;95366.03;;;-0.91;100.00
23589;BME280;11972;48.078;11.876;2022-11-14T02:56:16;95368.97;;;-0.95;100.00
23589;BME280;11972;48.078;11.876;2022-11-14T03:00:17;95362.38;;;-1.00;100.00
23589;BME280;11972;48.078;11.876;2022-11-14T03:04:17;95354.13;;;-1.05;100.00
23589;BME280;11972;48.078;11.876;2022-11-14T03:08:18;95357.88;;;-1.09;100.00
23589;BME280;11972;48.078;11.876;2022-11-14T03:12:19;95369.44;;;-1.13;100.00
23589;BME280;11972;48.078;11.876;2022-11-14T03:16:19;95374.22;;;-1.19;100.00
23589;BME280;11972;48.078;11.876;2022-11-14T03:20:19;95362.22;;;-1.20;100.00
23589;BME280;11972;48.078;11.876;2022-11-14T03:24:20;95371.97;;;-1.24;100.00
23589;BME280;11972;48.078;11.876;2022-11-14T03:28:21;95372.25;;;-1.27;100.00
23589;BME280;11972;48.078;11.876;2022-11-14T03:32:21;95377.75;;;-1.32;100.00
23589;BME280;11972;48.078;11.876;2022-11-14T03:36:21;95390.13;;;-1.35;100.00
23589;BME280;11972;48.078;11.876;2022-11-14T03:40:22;95377.59;;;-1.41;100.00
23589;BME280;11972;48.078;11.876;2022-11-14T03:44:22;95381.13;;;-1.42;100.00
23589;BME280;11972;48.078;11.876;2022-11-14T03:48:23;95370.03;;;-1.44;100.00
23589;BME280;11972;48.078;11.876;2022-11-14T03:52:23;95374.53;;;-1.46;100.00
23589;BME280;11972;48.078;11.876;2022-11-14T03:56:25;95390.13;;;-1.35;100.00
23589;BME280;11972;48.078;11.876;2022-11-14T04:00:26;95386.16;;;-1.17;100.00
23589;BME280;11972;48.078;11.876;2022-11-14T04:04:27;95391.63;;;-0.97;100.00
23589;BME280;11972;48.078;11.876;2022-11-14T04:08:28;95384.78;;;-0.87;100.00
23589;BME280;11972;48.078;11.876;2022-11-14T04:12:28;95377.97;;;-0.77;100.00
23589;BME280;11972;48.078;11.876;2022-11-14T04:16:28;95373.97;;;-0.70;100.00
23589;BME280;11972;48.078;11.876;2022-11-14T04:20:29;95373.97;;;-0.70;100.00
23589;BME280;11972;48.078;11.876;2022-11-14T04:24:29;95366.44;;;-0.73;100.00
23589;BME280;11972;48.078;11.876;2022-11-14T04:28:30;95366.78;;;-0.78;100.00
23589;BME280;11972;48.078;11.876;2022-11-14T04:32:31;95370.91;;;-0.86;100.00
23589;BME280;11972;48.078;11.876;2022-11-14T04:36:31;95360.50;;;-0.97;100.00
23589;BME280;11972;48.078;11.876;2022-11-14T04:40:31;95359.31;;;-1.05;100.00
23589;BME280;11972;48.078;11.876;2022-11-14T04:44:32;95370.16;;;-1.11;100.00
23589;BME280;11972;48.078;11.876;2022-11-14T04:48:32;95365.63;;;-1.20;100.00
23589;BME280;11972;48.078;11.876;2022-11-14T04:52:32;95373.75;;;-1.25;100.00
23589;BME280;11972;48.078;11.876;2022-11-14T04:56:33;95364.91;;;-1.33;100.00
23589;BME280;11972;48.078;11.876;2022-11-14T05:00:33;95362.78;;;-1.39;100.00
23589;BME280;11972;48.078;11.876;2022-11-14T05:04:33;95359.69;;;-1.44;100.00
23589;BME280;11972;48.078;11.876;2022-11-14T05:08:34;95348.63;;;-1.46;100.00
23589;BME280;11972;48.078;11.876;2022-11-14T05:12:34;95336.69;;;-1.49;100.00
23589;BME280;11972;48.078;11.876;2022-11-14T05:16:34;95343.66;;;-1.50;100.00
23589;BME280;11972;48.078;11.876;2022-11-14T05:20:35;95331.66;;;-1.51;100.00
23589;BME280;11972;48.078;11.876;2022-11-14T05:24:35;95345.75;;;-1.55;100.00
23589;BME280;11972;48.078;11.876;2022-11-14T05:28:36;95352.81;;;-1.57;100.00
23589;BME280;11972;48.078;11.876;2022-11-14T05:32:36;95352.22;;;-1.60;100.00
23589;BME280;11972;48.078;11.876;2022-11-14T05:36:36;95377.28;;;-1.61;100.00
23589;BME280;11972;48.078;11.876;2022-11-14T05:40:37;95389.53;;;-1.63;100.00
23589;BME280;11972;48.078;11.876;2022-11-14T05:44:37;95384.34;;;-1.63;100.00
23589;BME280;11972;48.078;11.876;2022-11-14T05:48:38;95383.53;;;-1.63;100.00
23589;BME280;11972;48.078;11.876;2022-11-14T05:52:38;95376.38;;;-1.60;100.00
23589;BME280;11972;48.078;11.876;2022-11-14T05:56:39;95382.03;;;-1.55;100.00
23589;BME280;11972;48.078;11.876;2022-11-14T06:00:39;95394.25;;;-1.57;100.00
23589;BME280;11972;48.078;11.876;2022-11-14T06:04:39;95393.44;;;-1.57;100.00
23589;BME280;11972;48.078;11.876;2022-11-14T06:08:40;95396.97;;;-1.58;100.00
23589;BME280;11972;48.078;11.876;2022-11-14T06:12:41;95414.50;;;-1.62;100.00
23589;BME280;11972;48.078;11.876;2022-11-14T06:16:42;95408.59;;;-1.64;100.00
23589;BME280;11972;48.078;11.876;2022-11-14T06:20:42;95409.69;;;-1.55;100.00
23589;BME280;11972;48.078;11.876;2022-11-14T06:24:42;95409.78;;;-1.33;100.00
23589;BME280;11972;48.078;11.876;2022-11-14T06:28:43;95420.31;;;-1.12;100.00
23589;BME280;11972;48.078;11.876;2022-11-14T06:32:43;95425.59;;;-0.89;100.00
23589;BME280;11972;48.078;11.876;2022-11-14T06:36:43;95407.91;;;-0.62;100.00
23589;BME280;11972;48.078;11.876;2022-11-14T06:40:44;95402.97;;;-0.42;100.00
23589;BME280;11972;48.078;11.876;2022-11-14T06:44:44;95417.16;;;-0.35;100.00
23589;BME280;11972;48.078;11.876;2022-11-14T06:48:45;95429.66;;;-0.40;100.00
23589;BME280;11972;48.078;11.876;2022-11-14T06:52:46;95403.22;;;-0.45;100.00
23589;BME280;11972;48.078;11.876;2022-11-14T06:56:46;95407.72;;;-0.47;100.00
23589;BME280;11972;48.078;11.876;2022-11-14T07:00:48;95408.66;;;-0.48;100.00
23589;BME280;11972;48.078;11.876;2022-11-14T07:04:48;95409.47;;;-0.48;100.00
23589;BME280;11972;48.078;11.876;2022-11-14T07:08:49;95415.25;;;-0.44;100.00
23589;BME280;11972;48.078;11.876;2022-11-14T07:12:50;95419.03;;;-0.37;100.00
23589;BME280;11972;48.078;11.876;2022-11-14T07:16:50;95405.00;;;-0.23;100.00
23589;BME280;11972;48.078;11.876;2022-11-14T07:21:01;95412.88;;;-0.14;100.00
23589;BME280;11972;48.078;11.876;2022-11-14T07:25:03;95412.66;;;-0.11;100.00
23589;BME280;11972;48.078;11.876;2022-11-14T07:29:03;95415.84;;;-0.07;100.00
23589;BME280;11972;48.078;11.876;2022-11-14T07:33:04;95417.38;;;-0.16;100.00
23589;BME280;11972;48.078;11.876;2022-11-14T07:37:04;95428.22;;;-0.22;100.00
23589;BME280;11972;48.078;11.876;2022-11-14T07:41:10;95415.47;;;-0.14;100.00
23589;BME280;11972;48.078;11.876;2022-11-14T07:45:11;95417.13;;;-0.02;100.00
23589;BME280;11972;48.078;11.876;2022-11-14T07:49:11;95414.38;;;0.11;100.00
23589;BME280;11972;48.078;11.876;2022-11-14T07:53:12;95411.03;;;0.20;100.00
23589;BME280;11972;48.078;11.876;2022-11-14T07:57:12;95392.25;;;0.28;100.00
23589;BME280;11972;48.078;11.876;2022-11-14T08:01:13;95396.75;;;0.37;100.00
23589;BME280;11972;48.078;11.876;2022-11-14T08:05:14;95383.97;;;0.45;100.00
23589;BME280;11972;48.078;11.876;2022-11-14T08:09:14;95386.50;;;0.57;100.00
23589;BME280;11972;48.078;11.876;2022-11-14T08:13:14;95391.41;;;0.71;100.00
23589;BME280;11972;48.078;11.876;2022-11-14T08:17:15;95379.81;;;0.96;100.00
23589;BME280;11972;48.078;11.876;2022-11-14T08:21:15;95378.16;;;1.16;100.00
23589;BME280;11972;48.078;11.876;2022-11-14T08:25:15;95389.94;;;1.41;100.00
23589;BME280;11972;48.078;11.876;2022-11-14T08:29:16;95373.72;;;1.68;100.00
23589;BME280;11972;48.078;11.876;2022-11-14T08:33:16;95378.75;;;1.90;100.00
23589;BME280;11972;48.078;11.876;2022-11-14T08:37:16;95373.06;;;2.16;100.00
23589;BME280;11972;48.078;11.876;2022-11-14T08:41:17;95364.06;;;2.39;100.00
23589;BME280;11972;48.078;11.876;2022-11-14T08:45:17;95366.22;;;2.63;100.00
23589;BME280;11972;48.078;11.876;2022-11-14T08:49:18;95354.84;;;2.84;100.00
23589;BME280;11972;48.078;11.876;2022-11-14T08:53:18;95345.50;;;3.01;100.00
23589;BME280;11972;48.078;11.876;2022-11-14T08:57:18;95344.34;;;3.22;100.00
23589;BME280;11972;48.078;11.876;2022-11-14T09:01:19;95349.09;;;3.46;100.00
23589;BME280;11972;48.078;11.876;2022-11-14T09:05:19;95351.91;;;3.63;100.00
23589;BME280;11972;48.078;11.876;2022-11-14T09:09:20;95349.09;;;4.02;100.00
23589;BME280;11972;48.078;11.876;2022-11-14T09:13:21;95343.03;;;4.46;100.00
23589;BME280;11972;48.078;11.876;2022-11-14T09:17:22;95337.31;;;5.05;100.00
23589;BME280;11972;48.078;11.876;2022-11-14T09:21:22;95335.13;;;5.78;100.00
23589;BME280;11972;48.078;11.876;2022-11-14T09:25:23;95345.56;;;6.46;100.00
23589;BME280;11972;48.078;11.876;2022-11-14T09:29:25;95349.53;;;7.00;100.00
23589;BME280;11972;48.078;11.876;2022-11-14T09:33:25;95346.53;;;7.35;100.00
23589;BME280;11972;48.078;11.876;2022-11-14T09:37:26;95350.59;;;7.70;100.00
23589;BME280;11972;48.078;11.876;2022-11-14T09:41:43;95356.91;;;8.01;100.00
23589;BME280;11972;48.078;11.876;2022-11-14T09:45:50;95360.91;;;8.28;100.00
23589;BME280;11972;48.078;11.876;2022-11-14T09:49:55;95366.41;;;8.49;100.00
23589;BME280;11972;48.078;11.876;2022-11-14T09:58:18;95360.47;;;8.78;100.00
23589;BME280;11972;48.078;11.876;2022-11-14T10:02:38;95357.44;;;8.89;100.00
23589;BME280;11972;48.078;11.876;2022-11-14T10:11:28;95368.00;;;9.27;100.00
23589;BME280;11972;48.078;11.876;2022-11-14T10:15:45;95355.31;;;9.45;100.00
23589;BME280;11972;48.078;11.876;2022-11-14T10:20:00;95352.53;;;9.62;100.00
23589;BME280;11972;48.078;11.876;2022-11-14T10:33:15;95356.75;;;10.30;100.00
23589;BME280;11972;48.078;11.876;2022-11-14T10:37:30;95354.50;;;10.49;100.00
23589;BME280;11972;48.078;11.876;2022-11-14T10:41:31;95363.13;;;10.72;100.00
23589;BME280;11972;48.078;11.876;2022-11-14T10:45:34;95356.28;;;10.99;100.00
23589;BME280;11972;48.078;11.876;2022-11-14T10:49:37;95363.00;;;11.23;100.00
23589;BME280;11972;48.078;11.876;2022-11-14T10:53:55;95359.69;;;11.42;100.00
23589;BME280;11972;48.078;11.876;2022-11-14T10:57:58;95362.06;;;11.59;100.00
23589;BME280;11972;48.078;11.876;2022-11-14T11:01:58;95353.84;;;11.75;100.00
23589;BME280;11972;48.078;11.876;2022-11-14T11:05:58;95347.69;;;11.96;100.00
23589;BME280;11972;48.078;11.876;2022-11-14T11:10:00;95347.41;;;12.19;100.00
23589;BME280;11972;48.078;11.876;2022-11-14T11:14:20;95344.59;;;12.27;100.00
23589;BME280;11972;48.078;11.876;2022-11-14T11:22:35;95355.03;;;12.42;100.00
23589;BME280;11972;48.078;11.876;2022-11-14T11:26:36;95344.94;;;12.65;100.00
23589;BME280;11972;48.078;11.876;2022-11-14T11:30:37;95360.28;;;12.83;100.00
23589;BME280;11972;48.078;11.876;2022-11-14T11:34:38;95349.47;;;12.78;100.00
23589;BME280;11972;48.078;11.876;2022-11-14T11:38:38;95359.00;;;12.66;100.00
23589;BME280;11972;48.078;11.876;2022-11-14T11:42:46;95367.31;;;12.50;100.00
23589;BME280;11972;48.078;11.876;2022-11-14T11:46:58;95374.34;;;12.29;100.00
23589;BME280;11972;48.078;11.876;2022-11-14T11:51:03;95361.25;;;12.21;100.00
23589;BME280;11972;48.078;11.876;2022-11-14T12:00:02;95372.19;;;12.05;100.00
23589;BME280;11972;48.078;11.876;2022-11-14T12:03:55;95382.31;;;11.95;100.00
23589;BME280;11972;48.078;11.876;2022-11-14T12:08:09;95379.81;;;11.86;100.00
23589;BME280;11972;48.078;11.876;2022-11-14T12:21:10;95393.56;;;11.54;100.00
23589;BME280;11972;48.078;11.876;2022-11-14T12:33:51;95412.72;;;10.91;100.00
23589;BME280;11972;48.078;11.876;2022-11-14T12:37:54;95414.81;;;10.45;100.00
23589;BME280;11972;48.078;11.876;2022-11-14T12:42:06;95427.19;;;10.44;100.00
23589;BME280;11972;48.078;11.876;2022-11-14T12:46:09;95430.00;;;10.43;100.00
23589;BME280;11972;48.078;11.876;2022-11-14T12:50:38;95436.34;;;10.78;100.00
23589;BME280;11972;48.078;11.876;2022-11-14T12:54:44;95437.50;;;10.90;100.00
23589;BME280;11972;48.078;11.876;2022-11-14T13:03:16;95447.94;;;10.48;100.00
23589;BME280;11972;48.078;11.876;2022-11-14T13:15:54;95456.84;;;10.17;100.00
23589;BME280;11972;48.078;11.876;2022-11-14T13:20:33;95446.44;;;10.15;100.00
23589;BME280;11972;48.078;11.876;2022-11-14T13:29:00;95450.00;;;10.08;100.00
23589;BME280;11972;48.078;11.876;2022-11-14T13:33:00;95439.16;;;10.03;100.00
23589;BME280;11972;48.078;11.876;2022-11-14T13:37:09;95442.53;;;9.97;100.00
23589;BME280;11972;48.078;11.876;2022-11-14T13:53:51;95453.31;;;9.72;100.00
23589;BME280;11972;48.078;11.876;2022-11-14T13:58:16;95454.66;;;9.68;100.00
23589;BME280;11972;48.078;11.876;2022-11-14T14:15:29;95445.97;;;9.44;100.00
23589;BME280;11972;48.078;11.876;2022-11-14T14:19:44;95444.72;;;9.32;100.00
23589;BME280;11972;48.078;11.876;2022-11-14T14:24:06;95439.88;;;9.21;100.00
23589;BME280;11972;48.078;11.876;2022-11-14T14:28:32;95436.00;;;9.09;100.00
23589;BME280;11972;48.078;11.876;2022-11-14T14:32:37;95446.28;;;8.95;100.00
23589;BME280;11972;48.078;11.876;2022-11-14T14:36:48;95442.41;;;8.83;100.00
23589;BME280;11972;48.078;11.876;2022-11-14T14:40:48;95451.34;;;8.74;100.00
23589;BME280;11972;48.078;11.876;2022-11-14T14:44:49;95454.66;;;8.68;100.00
23589;BME280;11972;48.078;11.876;2022-11-14T14:48:49;95441.69;;;8.66;100.00
23589;BME280;11972;48.078;11.876;2022-11-14T14:52:57;95440.19;;;8.64;100.00
23589;BME280;11972;48.078;11.876;2022-11-14T14:56:58;95441.91;;;8.57;100.00
23589;BME280;11972;48.078;11.876;2022-11-14T15:01:02;95444.91;;;8.45;100.00
23589;BME280;11972;48.078;11.876;2022-11-14T15:05:04;95445.59;;;8.39;100.00
23589;BME280;11972;48.078;11.876;2022-11-14T15:09:24;95449.22;;;8.22;100.00
23589;BME280;11972;48.078;11.876;2022-11-14T15:13:26;95450.94;;;7.99;100.00
23589;BME280;11972;48.078;11.876;2022-11-14T15:17:28;95448.84;;;7.78;100.00
23589;BME280;11972;48.078;11.876;2022-11-14T15:21:28;95452.13;;;7.55;100.00
23589;BME280;11972;48.078;11.876;2022-11-14T15:25:29;95458.38;;;7.21;100.00
23589;BME280;11972;48.078;11.876;2022-11-14T15:29:31;95461.44;;;6.92;100.00
23589;BME280;11972;48.078;11.876;2022-11-14T15:33:33;95471.41;;;6.72;100.00
23589;BME280;11972;48.078;11.876;2022-11-14T15:37:34;95476.41;;;6.50;100.00
23589;BME280;11972;48.078;11.876;2022-11-14T15:41:34;95481.41;;;6.27;100.00
23589;BME280;11972;48.078;11.876;2022-11-14T15:45:39;95474.88;;;6.05;100.00
23589;BME280;11972;48.078;11.876;2022-11-14T15:49:52;95483.91;;;5.84;100.00
23589;BME280;11972;48.078;11.876;2022-11-14T15:53:53;95482.59;;;5.62;100.00
23589;BME280;11972;48.078;11.876;2022-11-14T15:57:53;95483.38;;;5.37;100.00
23589;BME280;11972;48.078;11.876;2022-11-14T16:02:26;95477.47;;;5.17;100.00
23589;BME280;11972;48.078;11.876;2022-11-14T16:06:28;95478.00;;;5.03;100.00
23589;BME280;11972;48.078;11.876;2022-11-14T16:10:29;95476.59;;;4.90;100.00
23589;BME280;11972;48.078;11.876;2022-11-14T16:14:30;95490.53;;;4.81;100.00
23589;BME280;11972;48.078;11.876;2022-11-14T16:18:30;95486.19;;;4.72;100.00
23589;BME280;11972;48.078;11.876;2022-11-14T16:22:31;95477.97;;;4.67;100.00
23589;BME280;11972;48.078;11.876;2022-11-14T16:26:31;95477.59;;;4.62;100.00
23589;BME280;11972;48.078;11.876;2022-11-14T16:30:32;95481.59;;;4.56;100.00
23589;BME280;11972;48.078;11.876;2022-11-14T16:34:32;95487.97;;;4.54;100.00
23589;BME280;11972;48.078;11.876;2022-11-14T16:38:32;95487.59;;;4.48;100.00
23589;BME280;11972;48.078;11.876;2022-11-14T16:42:33;95491.16;;;4.47;100.00
23589;BME280;11972;48.078;11.876;2022-11-14T16:46:33;95490.47;;;4.45;100.00
23589;BME280;11972;48.078;11.876;2022-11-14T16:50:36;95488.75;;;4.36;100.00
23589;BME280;11972;48.078;11.876;2022-11-14T16:54:36;95491.75;;;4.32;100.00
23589;BME280;11972;48.078;11.876;2022-11-14T16:58:37;95489.31;;;4.30;100.00
23589;BME280;11972;48.078;11.876;2022-11-14T17:02:41;95490.94;;;4.31;100.00
23589;BME280;11972;48.078;11.876;2022-11-14T17:06:41;95494.53;;;4.30;100.00
23589;BME280;11972;48.078;11.876;2022-11-14T17:10:45;95494.53;;;4.30;100.00
23589;BME280;11972;48.078;11.876;2022-11-14T17:14:45;95498.78;;;4.31;100.00
23589;BME280;11972;48.078;11.876;2022-11-14T17:18:53;95495.22;;;4.32;100.00
23589;BME280;11972;48.078;11.876;2022-11-14T17:22:54;95486.84;;;4.29;100.00
23589;BME280;11972;48.078;11.876;2022-11-14T17:26:54;95483.81;;;4.23;100.00
23589;BME280;11972;48.078;11.876;2022-11-14T17:30:55;95485.50;;;4.15;100.00
23589;BME280;11972;48.078;11.876;2022-11-14T17:34:55;95484.47;;;4.08;100.00
23589;BME280;11972;48.078;11.876;2022-11-14T17:38:56;95480.59;;;4.02;100.00
23589;BME280;11972;48.078;11.876;2022-11-14T17:42:57;95481.41;;;4.03;100.00
23589;BME280;11972;48.078;11.876;2022-11-14T17:46:57;95482.53;;;4.00;100.00
23589;BME280;11972;48.078;11.876;2022-11-14T17:51:02;95472.53;;;3.95;100.00
23589;BME280;11972;48.078;11.876;2022-11-14T17:55:04;95463.88;;;3.85;100.00
23589;BME280;11972;48.078;11.876;2022-11-14T17:59:04;95476.28;;;3.83;100.00
23589;BME280;11972;48.078;11.876;2022-11-14T18:03:04;95475.56;;;3.81;100.00
23589;BME280;11972;48.078;11.876;2022-11-14T18:07:05;95479.31;;;3.79;100.00
23589;BME280;11972;48.078;11.876;2022-11-14T18:11:07;95485.06;;;3.82;100.00
23589;BME280;11972;48.078;11.876;2022-11-14T18:15:08;95486.41;;;3.86;100.00
23589;BME280;11972;48.078;11.876;2022-11-14T18:19:09;95482.56;;;3.90;100.00
23589;BME280;11972;48.078;11.876;2022-11-14T18:23:09;95481.06;;;3.88;100.00
23589;BME280;11972;48.078;11.876;2022-11-14T18:27:10;95484.25;;;3.82;100.00
23589;BME280;11972;48.078;11.876;2022-11-14T18:31:10;95482.06;;;3.77;100.00
23589;BME280;11972;48.078;11.876;2022-11-14T18:35:11;95488.66;;;3.81;100.00
23589;BME280;11972;48.078;11.876;2022-11-14T18:39:11;95487.56;;;3.74;100.00
23589;BME280;11972;48.078;11.876;2022-11-14T18:43:12;95481.25;;;3.67;100.00
23589;BME280;11972;48.078;11.876;2022-11-14T18:47:12;95481.25;;;3.57;100.00
23589;BME280;11972;48.078;11.876;2022-11-14T18:51:15;95471.94;;;3.55;100.00
23589;BME280;11972;48.078;11.876;2022-11-14T18:55:16;95465.34;;;3.51;100.00
23589;BME280;11972;48.078;11.876;2022-11-14T18:59:16;95474.44;;;3.46;100.00
23589;BME280;11972;48.078;11.876;2022-11-14T19:03:17;95466.03;;;3.33;100.00
23589;BME280;11972;48.078;11.876;2022-11-14T19:07:18;95467.84;;;3.23;100.00
23589;BME280;11972;48.078;11.876;2022-11-14T19:11:19;95464.84;;;3.18;100.00
23589;BME280;11972;48.078;11.876;2022-11-14T19:15:37;95465.50;;;3.20;100.00
23589;BME280;11972;48.078;11.876;2022-11-14T19:19:38;95463.59;;;3.22;100.00
23589;BME280;11972;48.078;11.876;2022-11-14T19:23:38;95471.16;;;3.25;100.00
23589;BME280;11972;48.078;11.876;2022-11-14T19:27:38;95471.69;;;3.29;100.00
23589;BME280;11972;48.078;11.876;2022-11-14T19:31:40;95470.03;;;3.28;100.00
23589;BME280;11972;48.078;11.876;2022-11-14T19:35:40;95474.72;;;3.24;100.00
23589;BME280;11972;48.078;11.876;2022-11-14T19:39:40;95475.81;;;3.21;100.00
23589;BME280;11972;48.078;11.876;2022-11-14T19:43:41;95475.25;;;3.28;100.00
23589;BME280;11972;48.078;11.876;2022-11-14T19:47:42;95475.53;;;3.34;100.00
23589;BME280;11972;48.078;11.876;2022-11-14T19:51:43;95476.91;;;3.38;100.00
23589;BME280;11972;48.078;11.876;2022-11-14T19:55:43;95471.13;;;3.35;100.00
23589;BME280;11972;48.078;11.876;2022-11-14T19:59:43;95468.94;;;3.30;100.00
23589;BME280;11972;48.078;11.876;2022-11-14T20:03:44;95467.28;;;3.29;100.00
23589;BME280;11972;48.078;11.876;2022-11-14T20:07:44;95471.69;;;3.29;100.00
23589;BME280;11972;48.078;11.876;2022-11-14T20:11:44;95467.56;;;3.36;100.00
23589;BME280;11972;48.078;11.876;2022-11-14T20:15:45;95467.72;;;3.34;100.00
23589;BME280;11972;48.078;11.876;2022-11-14T20:19:45;95468.41;;;3.27;100.00
23589;BME280;11972;48.078;11.876;2022-11-14T20:23:46;95472.25;;;3.22;100.00
23589;BME280;11972;48.078;11.876;2022-11-14T20:27:46;95464.69;;;3.10;100.00
23589;BME280;11972;48.078;11.876;2022-11-14T20:31:48;95464.56;;;3.02;100.00
23589;BME280;11972;48.078;11.876;2022-11-14T20:35:48;95464.41;;;3.03;100.00
23589;BME280;11972;48.078;11.876;2022-11-14T20:39:48;95462.63;;;3.04;100.00
23589;BME280;11972;48.078;11.876;2022-11-14T20:43:49;95457.13;;;3.07;100.00
23589;BME280;11972;48.078;11.876;2022-11-14T20:47:49;95459.75;;;3.07;100.00
23589;BME280;11972;48.078;11.876;2022-11-14T20:51:49;95452.75;;;2.97;100.00
23589;BME280;11972;48.078;11.876;2022-11-14T20:55:53;95450.56;;;2.93;100.00
23589;BME280;11972;48.078;11.876;2022-11-14T20:59:53;95453.13;;;2.83;100.00
23589;BME280;11972;48.078;11.876;2022-11-14T21:03:54;95448.47;;;2.77;100.00
23589;BME280;11972;48.078;11.876;2022-11-14T21:07:54;95451.09;;;2.77;100.00
23589;BME280;11972;48.078;11.876;2022-11-14T21:11:54;95449.72;;;2.73;100.00
23589;BME280;11972;48.078;11.876;2022-11-14T21:15:55;95441.75;;;2.65;100.00
23589;BME280;11972;48.078;11.876;2022-11-14T21:19:56;95435.41;;;2.58;100.00
23589;BME280;11972;48.078;11.876;2022-11-14T21:23:57;95441.59;;;2.57;100.00
23589;BME280;11972;48.078;11.876;2022-11-14T21:27:57;95433.50;;;2.60;100.00
23589;BME280;11972;48.078;11.876;2022-11-14T21:31:58;95431.56;;;2.62;100.00
23589;BME280;11972;48.078;11.876;2022-11-14T21:35:58;95428.00;;;2.63;100.00
23589;BME280;11972;48.078;11.876;2022-11-14T21:39:59;95427.31;;;2.61;100.00
23589;BME280;11972;48.078;11.876;2022-11-14T21:44:01;95425.69;;;2.60;100.00
23589;BME280;11972;48.078;11.876;2022-11-14T21:48:02;95429.94;;;2.61;100.00
23589;BME280;11972;48.078;11.876;2022-11-14T21:52:03;95424.56;;;2.62;100.00
23589;BME280;11972;48.078;11.876;2022-11-14T21:56:12;95420.06;;;2.74;100.00
23589;BME280;11972;48.078;11.876;2022-11-14T22:00:13;95427.34;;;2.80;100.00
23589;BME280;11972;48.078;11.876;2022-11-14T22:04:13;95424.03;;;2.88;100.00
23589;BME280;11972;48.078;11.876;2022-11-14T22:08:14;95428.00;;;2.92;100.00
23589;BME280;11972;48.078;11.876;2022-11-14T22:12:14;95420.06;;;2.93;100.00
23589;BME280;11972;48.078;11.876;2022-11-14T22:16:15;95423.34;;;2.95;100.00
23589;BME280;11972;48.078;11.876;2022-11-14T22:20:19;95421.72;;;2.94;100.00
23589;BME280;11972;48.078;11.876;2022-11-14T22:24:22;95414.84;;;2.93;100.00
23589;BME280;11972;48.078;11.876;2022-11-14T22:28:23;95423.91;;;2.99;100.00
23589;BME280;11972;48.078;11.876;2022-11-14T22:32:23;95409.75;;;3.02;100.00